sensor_id;sensor_type;location;lat;lon;timestamp;P1;durP1;ratioP1;P2;durP2;ratioP2
30020;SDS011;16861;52.294;7.760;2023-09-18T00:01:14;5.72;;;3.40;;
30020;SDS011;16861;52.294;7.760;2023-09-18T00:03:40;4.18;;;2.92;;
30020;SDS011;16861;52.294;7.760;2023-09-18T00:06:07;5.32;;;3.20;;
30020;SDS011;16861;52.294;7.760;2023-09-18T00:08:35;3.83;;;3.05;;
30020;SDS011;16861;52.294;7.760;2023-09-18T00:11:01;7.10;;;3.38;;
30020;SDS011;16861;52.294;7.760;2023-09-18T00:13:31;4.22;;;3.10;;
30020;SDS011;16861;52.294;7.760;2023-09-18T00:15:57;4.43;;;3.00;;
30020;SDS011;16861;52.294;7.760;2023-09-18T00:18:26;5.50;;;3.40;;
30020;SDS011;16861;52.294;7.760;2023-09-18T00:20:52;5.20;;;3.30;;
30020;SDS011;16861;52.294;7.760;2023-09-18T00:23:19;5.90;;;3.10;;
30020;SDS011;16861;52.294;7.760;2023-09-18T00:25:46;4.93;;;3.10;;
30020;SDS011;16861;52.294;7.760;2023-09-18T00:28:13;6.35;;;3.35;;
30020;SDS011;16861;52.294;7.760;2023-09-18T00:30:42;5.93;;;3.45;;
30020;SDS011;16861;52.294;7.760;2023-09-18T00:33:12;4.50;;;3.33;;
30020;SDS011;16861;52.294;7.760;2023-09-18T00:35:39;4.55;;;3.50;;
30020;SDS011;16861;52.294;7.760;2023-09-18T00:38:05;5.95;;;3.53;;
30020;SDS011;16861;52.294;7.760;2023-09-18T00:40:34;4.65;;;3.60;;
30020;SDS011;16861;52.294;7.760;2023-09-18T00:43:00;4.43;;;3.65;;
30020;SDS011;16861;52.294;7.760;2023-09-18T00:45:27;4.50;;;3.30;;
30020;SDS011;16861;52.294;7.760;2023-09-18T00:47:53;3.97;;;3.47;;
30020;SDS011;16861;52.294;7.760;2023-09-18T00:50:20;6.22;;;3.35;;
30020;SDS011;16861;52.294;7.760;2023-09-18T00:52:48;7.45;;;3.88;;
30020;SDS011;16861;52.294;7.760;2023-09-18T00:55:15;6.82;;;3.53;;
30020;SDS011;16861;52.294;7.760;2023-09-18T00:57:43;3.60;;;3.30;;
30020;SDS011;16861;52.294;7.760;2023-09-18T01:00:11;8.68;;;3.65;;
30020;SDS011;16861;52.294;7.760;2023-09-18T01:02:43;4.43;;;3.55;;
30020;SDS011;16861;52.294;7.760;2023-09-18T01:05:11;7.78;;;4.00;;
30020;SDS011;16861;52.294;7.760;2023-09-18T01:07:38;12.05;;;4.20;;
30020;SDS011;16861;52.294;7.760;2023-09-18T01:10:05;7.07;;;4.25;;
30020;SDS011;16861;52.294;7.760;2023-09-18T01:15:21;5.68;;;3.85;;
30020;SDS011;16861;52.294;7.760;2023-09-18T01:17:52;4.97;;;3.70;;
30020;SDS011;16861;52.294;7.760;2023-09-18T01:20:20;6.03;;;4.03;;
30020;SDS011;16861;52.294;7.760;2023-09-18T01:22:46;8.77;;;3.60;;
30020;SDS011;16861;52.294;7.760;2023-09-18T01:25:15;8.02;;;3.85;;
30020;SDS011;16861;52.294;7.760;2023-09-18T01:27:42;8.32;;;3.97;;
30020;SDS011;16861;52.294;7.760;2023-09-18T01:30:08;7.28;;;3.97;;
30020;SDS011;16861;52.294;7.760;2023-09-18T01:32:35;5.43;;;3.67;;
30020;SDS011;16861;52.294;7.760;2023-09-18T01:35:04;9.75;;;3.72;;
30020;SDS011;16861;52.294;7.760;2023-09-18T01:37:33;5.07;;;3.90;;
30020;SDS011;16861;52.294;7.760;2023-09-18T01:40:01;7.22;;;4.35;;
30020;SDS011;16861;52.294;7.760;2023-09-18T01:42:33;9.23;;;4.28;;
30020;SDS011;16861;52.294;7.760;2023-09-18T01:45:01;10.75;;;4.40;;
30020;SDS011;16861;52.294;7.760;2023-09-18T01:47:29;7.50;;;4.03;;
30020;SDS011;16861;52.294;7.760;2023-09-18T01:49:56;8.23;;;4.53;;
30020;SDS011;16861;52.294;7.760;2023-09-18T01:52:22;7.95;;;4.47;;
30020;SDS011;16861;52.294;7.760;2023-09-18T01:54:49;8.13;;;4.25;;
30020;SDS011;16861;52.294;7.760;2023-09-18T01:57:15;8.55;;;4.35;;
30020;SDS011;16861;52.294;7.760;2023-09-18T01:59:42;7.43;;;4.32;;
30020;SDS011;16861;52.294;7.760;2023-09-18T02:02:10;5.22;;;4.28;;
30020;SDS011;16861;52.294;7.760;2023-09-18T02:04:44;7.28;;;4.32;;
30020;SDS011;16861;52.294;7.760;2023-09-18T02:07:31;6.63;;;4.05;;
30020;SDS011;16861;52.294;7.760;2023-09-18T02:09:58;7.80;;;4.40;;
30020;SDS011;16861;52.294;7.760;2023-09-18T02:12:24;8.50;;;4.15;;
30020;SDS011;16861;52.294;7.760;2023-09-18T02:14:51;5.90;;;4.47;;
30020;SDS011;16861;52.294;7.760;2023-09-18T02:17:17;5.20;;;3.60;;
30020;SDS011;16861;52.294;7.760;2023-09-18T02:19:46;4.82;;;3.80;;
30020;SDS011;16861;52.294;7.760;2023-09-18T02:22:15;3.95;;;3.55;;
30020;SDS011;16861;52.294;7.760;2023-09-18T02:24:42;5.15;;;3.75;;
30020;SDS011;16861;52.294;7.760;2023-09-18T02:27:08;5.63;;;3.65;;
30020;SDS011;16861;52.294;7.760;2023-09-18T02:29:35;7.40;;;4.60;;
30020;SDS011;16861;52.294;7.760;2023-09-18T02:32:01;9.65;;;4.13;;
30020;SDS011;16861;52.294;7.760;2023-09-18T02:34:28;5.03;;;3.72;;
30020;SDS011;16861;52.294;7.760;2023-09-18T02:36:55;9.50;;;4.82;;
30020;SDS011;16861;52.294;7.760;2023-09-18T02:39:22;7.25;;;4.22;;
30020;SDS011;16861;52.294;7.760;2023-09-18T02:41:48;7.43;;;4.25;;
30020;SDS011;16861;52.294;7.760;2023-09-18T02:44:15;7.05;;;4.32;;
30020;SDS011;16861;52.294;7.760;2023-09-18T02:46:42;7.70;;;4.28;;
30020;SDS011;16861;52.294;7.760;2023-09-18T02:49:09;6.65;;;4.60;;
30020;SDS011;16861;52.294;7.760;2023-09-18T02:51:36;7.38;;;4.18;;
30020;SDS011;16861;52.294;7.760;2023-09-18T02:54:03;8.07;;;5.07;;
30020;SDS011;16861;52.294;7.760;2023-09-18T02:56:29;6.82;;;4.45;;
30020;SDS011;16861;52.294;7.760;2023-09-18T02:58:56;6.70;;;4.47;;
30020;SDS011;16861;52.294;7.760;2023-09-18T03:01:23;7.13;;;4.13;;
30020;SDS011;16861;52.294;7.760;2023-09-18T03:03:49;6.43;;;4.03;;
30020;SDS011;16861;52.294;7.760;2023-09-18T03:06:16;7.80;;;4.18;;
30020;SDS011;16861;52.294;7.760;2023-09-18T03:08:42;8.38;;;3.92;;
30020;SDS011;16861;52.294;7.760;2023-09-18T03:11:12;8.82;;;4.30;;
30020;SDS011;16861;52.294;7.760;2023-09-18T03:13:46;10.40;;;4.45;;
30020;SDS011;16861;52.294;7.760;2023-09-18T03:18:40;5.28;;;3.92;;
30020;SDS011;16861;52.294;7.760;2023-09-18T03:21:06;7.25;;;4.55;;
30020;SDS011;16861;52.294;7.760;2023-09-18T03:23:33;5.53;;;4.10;;
30020;SDS011;16861;52.294;7.760;2023-09-18T03:26:00;10.07;;;4.07;;
30020;SDS011;16861;52.294;7.760;2023-09-18T03:28:26;5.75;;;3.92;;
30020;SDS011;16861;52.294;7.760;2023-09-18T03:30:53;8.15;;;4.30;;
30020;SDS011;16861;52.294;7.760;2023-09-18T03:33:19;8.77;;;4.03;;
30020;SDS011;16861;52.294;7.760;2023-09-18T03:35:47;8.95;;;4.97;;
30020;SDS011;16861;52.294;7.760;2023-09-18T03:38:17;6.68;;;4.20;;
30020;SDS011;16861;52.294;7.760;2023-09-18T03:40:44;8.77;;;4.15;;
30020;SDS011;16861;52.294;7.760;2023-09-18T03:43:11;8.20;;;3.92;;
30020;SDS011;16861;52.294;7.760;2023-09-18T03:45:40;8.77;;;4.40;;
30020;SDS011;16861;52.294;7.760;2023-09-18T03:48:08;7.15;;;4.05;;
30020;SDS011;16861;52.294;7.760;2023-09-18T03:50:35;6.85;;;4.32;;
30020;SDS011;16861;52.294;7.760;2023-09-18T03:53:02;8.32;;;4.15;;
30020;SDS011;16861;52.294;7.760;2023-09-18T03:55:29;7.07;;;4.05;;
30020;SDS011;16861;52.294;7.760;2023-09-18T03:57:56;6.35;;;3.97;;
30020;SDS011;16861;52.294;7.760;2023-09-18T04:00:23;9.95;;;4.60;;
30020;SDS011;16861;52.294;7.760;2023-09-18T04:02:50;8.98;;;4.22;;
30020;SDS011;16861;52.294;7.760;2023-09-18T04:05:17;6.57;;;3.70;;
30020;SDS011;16861;52.294;7.760;2023-09-18T04:07:45;4.95;;;3.67;;
30020;SDS011;16861;52.294;7.760;2023-09-18T04:10:16;5.95;;;3.53;;
30020;SDS011;16861;52.294;7.760;2023-09-18T04:12:49;9.00;;;3.80;;
30020;SDS011;16861;52.294;7.760;2023-09-18T04:15:19;6.53;;;3.92;;
30020;SDS011;16861;52.294;7.760;2023-09-18T04:17:46;7.45;;;4.40;;
30020;SDS011;16861;52.294;7.760;2023-09-18T04:20:13;7.85;;;3.90;;
30020;SDS011;16861;52.294;7.760;2023-09-18T04:22:42;5.63;;;3.72;;
30020;SDS011;16861;52.294;7.760;2023-09-18T04:25:17;4.07;;;3.33;;
30020;SDS011;16861;52.294;7.760;2023-09-18T04:27:45;7.93;;;3.65;;
30020;SDS011;16861;52.294;7.760;2023-09-18T04:30:12;6.88;;;3.75;;
30020;SDS011;16861;52.294;7.760;2023-09-18T04:32:40;7.15;;;4.05;;
30020;SDS011;16861;52.294;7.760;2023-09-18T04:35:07;7.18;;;4.20;;
30020;SDS011;16861;52.294;7.760;2023-09-18T04:37:35;8.10;;;3.85;;
30020;SDS011;16861;52.294;7.760;2023-09-18T04:40:04;6.85;;;3.88;;
30020;SDS011;16861;52.294;7.760;2023-09-18T04:42:37;7.45;;;3.78;;
30020;SDS011;16861;52.294;7.760;2023-09-18T04:45:05;7.75;;;3.78;;
30020;SDS011;16861;52.294;7.760;2023-09-18T04:47:32;8.82;;;4.20;;
30020;SDS011;16861;52.294;7.760;2023-09-18T04:49:59;4.80;;;3.30;;
30020;SDS011;16861;52.294;7.760;2023-09-18T04:52:25;9.73;;;3.67;;
30020;SDS011;16861;52.294;7.760;2023-09-18T04:54:52;6.68;;;3.72;;
30020;SDS011;16861;52.294;7.760;2023-09-18T04:57:20;11.50;;;3.28;;
30020;SDS011;16861;52.294;7.760;2023-09-18T04:59:48;5.82;;;3.40;;
30020;SDS011;16861;52.294;7.760;2023-09-18T05:02:35;7.38;;;3.60;;
30020;SDS011;16861;52.294;7.760;2023-09-18T05:05:02;5.60;;;3.28;;
30020;SDS011;16861;52.294;7.760;2023-09-18T05:07:30;7.38;;;3.50;;
30020;SDS011;16861;52.294;7.760;2023-09-18T05:09:57;6.22;;;3.58;;
30020;SDS011;16861;52.294;7.760;2023-09-18T05:12:24;8.35;;;4.00;;
30020;SDS011;16861;52.294;7.760;2023-09-18T05:14:53;6.20;;;3.50;;
30020;SDS011;16861;52.294;7.760;2023-09-18T05:17:19;6.03;;;3.33;;
30020;SDS011;16861;52.294;7.760;2023-09-18T05:19:46;8.85;;;3.88;;
30020;SDS011;16861;52.294;7.760;2023-09-18T05:22:12;7.10;;;3.60;;
30020;SDS011;16861;52.294;7.760;2023-09-18T05:24:39;11.20;;;3.70;;
30020;SDS011;16861;52.294;7.760;2023-09-18T05:27:06;6.63;;;3.58;;
30020;SDS011;16861;52.294;7.760;2023-09-18T05:29:33;8.23;;;3.47;;
30020;SDS011;16861;52.294;7.760;2023-09-18T05:32:04;6.70;;;3.40;;
30020;SDS011;16861;52.294;7.760;2023-09-18T05:34:30;8.85;;;3.55;;
30020;SDS011;16861;52.294;7.760;2023-09-18T05:36:58;5.25;;;3.20;;
30020;SDS011;16861;52.294;7.760;2023-09-18T05:39:24;4.00;;;3.05;;
30020;SDS011;16861;52.294;7.760;2023-09-18T05:41:51;11.02;;;3.92;;
30020;SDS011;16861;52.294;7.760;2023-09-18T05:44:18;6.18;;;3.72;;
30020;SDS011;16861;52.294;7.760;2023-09-18T05:46:44;8.05;;;3.60;;
30020;SDS011;16861;52.294;7.760;2023-09-18T05:49:11;6.22;;;3.58;;
30020;SDS011;16861;52.294;7.760;2023-09-18T05:51:38;9.57;;;3.70;;
30020;SDS011;16861;52.294;7.760;2023-09-18T05:54:05;9.57;;;3.92;;
30020;SDS011;16861;52.294;7.760;2023-09-18T05:56:31;4.45;;;4.05;;
30020;SDS011;16861;52.294;7.760;2023-09-18T05:58:58;9.07;;;3.67;;
30020;SDS011;16861;52.294;7.760;2023-09-18T06:01:25;7.47;;;3.90;;
30020;SDS011;16861;52.294;7.760;2023-09-18T06:03:52;9.80;;;4.10;;
30020;SDS011;16861;52.294;7.760;2023-09-18T06:06:18;4.78;;;3.40;;
30020;SDS011;16861;52.294;7.760;2023-09-18T06:08:45;7.05;;;3.40;;
30020;SDS011;16861;52.294;7.760;2023-09-18T06:11:12;10.32;;;3.78;;
30020;SDS011;16861;52.294;7.760;2023-09-18T06:13:39;6.68;;;3.72;;
30020;SDS011;16861;52.294;7.760;2023-09-18T06:16:05;8.45;;;3.60;;
30020;SDS011;16861;52.294;7.760;2023-09-18T06:18:34;9.02;;;4.10;;
30020;SDS011;16861;52.294;7.760;2023-09-18T06:21:02;9.48;;;4.05;;
30020;SDS011;16861;52.294;7.760;2023-09-18T06:23:28;6.40;;;3.40;;
30020;SDS011;16861;52.294;7.760;2023-09-18T06:25:55;7.22;;;3.60;;
30020;SDS011;16861;52.294;7.760;2023-09-18T06:28:22;7.85;;;3.58;;
30020;SDS011;16861;52.294;7.760;2023-09-18T06:30:49;7.57;;;4.13;;
30020;SDS011;16861;52.294;7.760;2023-09-18T06:33:16;10.10;;;4.00;;
30020;SDS011;16861;52.294;7.760;2023-09-18T06:35:43;6.80;;;3.45;;
30020;SDS011;16861;52.294;7.760;2023-09-18T06:38:09;7.55;;;3.50;;
30020;SDS011;16861;52.294;7.760;2023-09-18T06:40:39;7.30;;;3.30;;
30020;SDS011;16861;52.294;7.760;2023-09-18T06:43:05;7.60;;;3.97;;
30020;SDS011;16861;52.294;7.760;2023-09-18T06:45:32;6.97;;;3.40;;
30020;SDS011;16861;52.294;7.760;2023-09-18T06:47:59;9.18;;;4.00;;
30020;SDS011;16861;52.294;7.760;2023-09-18T06:50:29;9.30;;;3.60;;
30020;SDS011;16861;52.294;7.760;2023-09-18T06:52:57;9.07;;;3.70;;
30020;SDS011;16861;52.294;7.760;2023-09-18T06:55:23;9.05;;;3.58;;
30020;SDS011;16861;52.294;7.760;2023-09-18T06:57:50;8.52;;;3.25;;
30020;SDS011;16861;52.294;7.760;2023-09-18T07:00:18;10.90;;;3.33;;
30020;SDS011;16861;52.294;7.760;2023-09-18T07:02:47;7.22;;;3.67;;
30020;SDS011;16861;52.294;7.760;2023-09-18T07:05:16;7.80;;;3.70;;
30020;SDS011;16861;52.294;7.760;2023-09-18T07:07:43;7.93;;;3.63;;
30020;SDS011;16861;52.294;7.760;2023-09-18T07:10:09;9.95;;;3.55;;
30020;SDS011;16861;52.294;7.760;2023-09-18T07:12:36;7.43;;;3.38;;
30020;SDS011;16861;52.294;7.760;2023-09-18T07:15:03;8.57;;;3.70;;
30020;SDS011;16861;52.294;7.760;2023-09-18T07:17:31;10.90;;;3.88;;
30020;SDS011;16861;52.294;7.760;2023-09-18T07:19:58;9.05;;;3.55;;
30020;SDS011;16861;52.294;7.760;2023-09-18T07:22:26;8.90;;;3.22;;
30020;SDS011;16861;52.294;7.760;2023-09-18T07:24:56;9.50;;;3.50;;
30020;SDS011;16861;52.294;7.760;2023-09-18T07:27:22;9.10;;;4.05;;
30020;SDS011;16861;52.294;7.760;2023-09-18T07:29:49;7.80;;;4.03;;
30020;SDS011;16861;52.294;7.760;2023-09-18T07:32:15;7.63;;;3.50;;
30020;SDS011;16861;52.294;7.760;2023-09-18T07:34:55;7.93;;;3.67;;
30020;SDS011;16861;52.294;7.760;2023-09-18T07:37:22;8.38;;;3.67;;
30020;SDS011;16861;52.294;7.760;2023-09-18T07:39:49;8.77;;;3.70;;
30020;SDS011;16861;52.294;7.760;2023-09-18T07:42:15;7.35;;;3.55;;
30020;SDS011;16861;52.294;7.760;2023-09-18T07:44:42;10.30;;;3.55;;
30020;SDS011;16861;52.294;7.760;2023-09-18T07:47:08;7.28;;;3.17;;
30020;SDS011;16861;52.294;7.760;2023-09-18T07:49:35;12.98;;;3.65;;
30020;SDS011;16861;52.294;7.760;2023-09-18T07:52:02;9.73;;;3.53;;
30020;SDS011;16861;52.294;7.760;2023-09-18T07:54:28;7.85;;;3.55;;
30020;SDS011;16861;52.294;7.760;2023-09-18T07:56:55;10.35;;;3.67;;
30020;SDS011;16861;52.294;7.760;2023-09-18T07:59:23;9.88;;;3.70;;
30020;SDS011;16861;52.294;7.760;2023-09-18T08:01:51;9.23;;;3.40;;
30020;SDS011;16861;52.294;7.760;2023-09-18T08:04:18;10.63;;;3.58;;
30020;SDS011;16861;52.294;7.760;2023-09-18T08:06:45;8.13;;;3.33;;
30020;SDS011;16861;52.294;7.760;2023-09-18T08:09:12;6.55;;;3.17;;
30020;SDS011;16861;52.294;7.760;2023-09-18T08:11:41;9.07;;;3.97;;
30020;SDS011;16861;52.294;7.760;2023-09-18T08:14:13;8.00;;;3.72;;
30020;SDS011;16861;52.294;7.760;2023-09-18T08:16:39;8.98;;;3.67;;
30020;SDS011;16861;52.294;7.760;2023-09-18T08:19:06;10.93;;;3.70;;
30020;SDS011;16861;52.294;7.760;2023-09-18T08:21:33;10.65;;;3.75;;
30020;SDS011;16861;52.294;7.760;2023-09-18T08:23:59;10.27;;;3.90;;
30020;SDS011;16861;52.294;7.760;2023-09-18T08:26:26;9.18;;;3.50;;
30020;SDS011;16861;52.294;7.760;2023-09-18T08:28:54;9.02;;;2.88;;
30020;SDS011;16861;52.294;7.760;2023-09-18T08:31:21;6.85;;;3.45;;
30020;SDS011;16861;52.294;7.760;2023-09-18T08:33:47;11.32;;;3.95;;
30020;SDS011;16861;52.294;7.760;2023-09-18T08:36:14;8.35;;;3.13;;
30020;SDS011;16861;52.294;7.760;2023-09-18T08:38:41;7.75;;;3.17;;
30020;SDS011;16861;52.294;7.760;2023-09-18T08:41:11;8.20;;;3.15;;
30020;SDS011;16861;52.294;7.760;2023-09-18T08:43:39;10.00;;;3.38;;
30020;SDS011;16861;52.294;7.760;2023-09-18T08:46:09;6.82;;;3.05;;
30020;SDS011;16861;52.294;7.760;2023-09-18T08:48:36;7.55;;;3.53;;
30020;SDS011;16861;52.294;7.760;2023-09-18T08:51:04;7.15;;;3.50;;
30020;SDS011;16861;52.294;7.760;2023-09-18T08:53:32;7.75;;;3.17;;
30020;SDS011;16861;52.294;7.760;2023-09-18T08:56:01;6.18;;;3.20;;
30020;SDS011;16861;52.294;7.760;2023-09-18T08:58:30;7.90;;;3.50;;
30020;SDS011;16861;52.294;7.760;2023-09-18T09:00:58;6.60;;;2.92;;
30020;SDS011;16861;52.294;7.760;2023-09-18T09:03:26;10.55;;;3.30;;
30020;SDS011;16861;52.294;7.760;2023-09-18T09:05:56;8.23;;;2.95;;
30020;SDS011;16861;52.294;7.760;2023-09-18T09:08:27;8.02;;;2.50;;
30020;SDS011;16861;52.294;7.760;2023-09-18T09:10:55;9.88;;;3.20;;
30020;SDS011;16861;52.294;7.760;2023-09-18T09:13:24;10.35;;;2.50;;
30020;SDS011;16861;52.294;7.760;2023-09-18T09:16:11;6.88;;;2.83;;
30020;SDS011;16861;52.294;7.760;2023-09-18T09:18:49;7.55;;;2.53;;
30020;SDS011;16861;52.294;7.760;2023-09-18T09:21:18;8.63;;;2.47;;
30020;SDS011;16861;52.294;7.760;2023-09-18T09:23:46;4.95;;;2.55;;
30020;SDS011;16861;52.294;7.760;2023-09-18T09:26:19;8.32;;;2.97;;
30020;SDS011;16861;52.294;7.760;2023-09-18T09:28:47;6.88;;;2.40;;
30020;SDS011;16861;52.294;7.760;2023-09-18T09:31:26;5.32;;;2.17;;
30020;SDS011;16861;52.294;7.760;2023-09-18T09:33:54;5.43;;;2.58;;
30020;SDS011;16861;52.294;7.760;2023-09-18T09:36:22;5.78;;;2.80;;
30020;SDS011;16861;52.294;7.760;2023-09-18T09:38:56;4.55;;;2.22;;
30020;SDS011;16861;52.294;7.760;2023-09-18T09:41:25;6.05;;;2.22;;
30020;SDS011;16861;52.294;7.760;2023-09-18T09:43:54;3.70;;;2.20;;
30020;SDS011;16861;52.294;7.760;2023-09-18T09:46:24;4.13;;;2.30;;
30020;SDS011;16861;52.294;7.760;2023-09-18T09:49:02;9.40;;;2.33;;
30020;SDS011;16861;52.294;7.760;2023-09-18T09:51:32;5.40;;;2.35;;
30020;SDS011;16861;52.294;7.760;2023-09-18T09:56:45;3.67;;;2.08;;
30020;SDS011;16861;52.294;7.760;2023-09-18T09:59:14;5.10;;;2.30;;
30020;SDS011;16861;52.294;7.760;2023-09-18T10:01:41;4.57;;;2.28;;
30020;SDS011;16861;52.294;7.760;2023-09-18T10:04:14;6.43;;;2.30;;
30020;SDS011;16861;52.294;7.760;2023-09-18T10:06:53;3.63;;;2.03;;
30020;SDS011;16861;52.294;7.760;2023-09-18T10:09:25;5.20;;;2.30;;
30020;SDS011;16861;52.294;7.760;2023-09-18T10:11:55;5.45;;;2.13;;
30020;SDS011;16861;52.294;7.760;2023-09-18T10:14:28;5.43;;;2.10;;
30020;SDS011;16861;52.294;7.760;2023-09-18T10:17:14;5.95;;;1.70;;
30020;SDS011;16861;52.294;7.760;2023-09-18T10:22:51;3.53;;;1.85;;
30020;SDS011;16861;52.294;7.760;2023-09-18T10:25:21;3.75;;;2.10;;
30020;SDS011;16861;52.294;7.760;2023-09-18T10:27:50;4.60;;;1.98;;
30020;SDS011;16861;52.294;7.760;2023-09-18T10:30:24;4.00;;;1.63;;
30020;SDS011;16861;52.294;7.760;2023-09-18T10:32:53;2.80;;;2.00;;
30020;SDS011;16861;52.294;7.760;2023-09-18T10:35:20;2.05;;;1.73;;
30020;SDS011;16861;52.294;7.760;2023-09-18T10:37:48;3.65;;;2.13;;
30020;SDS011;16861;52.294;7.760;2023-09-18T10:40:17;2.78;;;2.00;;
30020;SDS011;16861;52.294;7.760;2023-09-18T10:42:45;2.85;;;2.03;;
30020;SDS011;16861;52.294;7.760;2023-09-18T10:45:14;5.80;;;2.30;;
30020;SDS011;16861;52.294;7.760;2023-09-18T10:47:42;5.90;;;2.35;;
30020;SDS011;16861;52.294;7.760;2023-09-18T10:50:22;5.10;;;2.30;;
30020;SDS011;16861;52.294;7.760;2023-09-18T10:52:50;4.43;;;2.50;;
30020;SDS011;16861;52.294;7.760;2023-09-18T10:55:17;3.97;;;2.60;;
30020;SDS011;16861;52.294;7.760;2023-09-18T10:57:54;4.68;;;2.72;;
30020;SDS011;16861;52.294;7.760;2023-09-18T11:00:26;11.98;;;2.60;;
30020;SDS011;16861;52.294;7.760;2023-09-18T11:03:08;3.97;;;2.33;;
30020;SDS011;16861;52.294;7.760;2023-09-18T11:05:38;4.15;;;2.45;;
30020;SDS011;16861;52.294;7.760;2023-09-18T11:08:23;3.33;;;2.70;;
30020;SDS011;16861;52.294;7.760;2023-09-18T11:11:01;3.00;;;2.30;;
30020;SDS011;16861;52.294;7.760;2023-09-18T11:13:40;3.97;;;2.22;;
30020;SDS011;16861;52.294;7.760;2023-09-18T11:24:16;7.57;;;2.20;;
30020;SDS011;16861;52.294;7.760;2023-09-18T11:26:45;5.82;;;1.92;;
30020;SDS011;16861;52.294;7.760;2023-09-18T11:29:17;3.92;;;1.98;;
30020;SDS011;16861;52.294;7.760;2023-09-18T11:31:49;4.18;;;1.85;;
30020;SDS011;16861;52.294;7.760;2023-09-18T11:34:24;3.13;;;1.85;;
30020;SDS011;16861;52.294;7.760;2023-09-18T11:36:52;4.00;;;1.70;;
30020;SDS011;16861;52.294;7.760;2023-09-18T11:39:35;5.93;;;2.33;;
30020;SDS011;16861;52.294;7.760;2023-09-18T11:44:49;3.38;;;1.55;;
30020;SDS011;16861;52.294;7.760;2023-09-18T11:47:17;3.58;;;1.60;;
30020;SDS011;16861;52.294;7.760;2023-09-18T11:49:52;2.75;;;1.40;;
30020;SDS011;16861;52.294;7.760;2023-09-18T11:52:25;3.20;;;1.63;;
30020;SDS011;16861;52.294;7.760;2023-09-18T11:54:53;3.10;;;1.50;;
30020;SDS011;16861;52.294;7.760;2023-09-18T11:57:22;3.63;;;1.42;;
30020;SDS011;16861;52.294;7.760;2023-09-18T11:59:50;2.35;;;1.50;;
30020;SDS011;16861;52.294;7.760;2023-09-18T12:02:24;3.08;;;1.50;;
30020;SDS011;16861;52.294;7.760;2023-09-18T12:05:14;3.17;;;1.20;;
30020;SDS011;16861;52.294;7.760;2023-09-18T12:07:42;3.78;;;1.77;;
30020;SDS011;16861;52.294;7.760;2023-09-18T12:10:16;3.83;;;1.40;;
30020;SDS011;16861;52.294;7.760;2023-09-18T12:12:45;2.53;;;1.30;;
30020;SDS011;16861;52.294;7.760;2023-09-18T12:15:12;2.63;;;1.20;;
30020;SDS011;16861;52.294;7.760;2023-09-18T12:17:40;2.58;;;1.20;;
30020;SDS011;16861;52.294;7.760;2023-09-18T12:20:06;2.83;;;1.15;;
30020;SDS011;16861;52.294;7.760;2023-09-18T12:22:40;2.75;;;1.00;;
30020;SDS011;16861;52.294;7.760;2023-09-18T12:25:14;2.17;;;1.15;;
30020;SDS011;16861;52.294;7.760;2023-09-18T12:27:42;1.95;;;1.10;;
30020;SDS011;16861;52.294;7.760;2023-09-18T12:30:10;1.98;;;1.40;;
30020;SDS011;16861;52.294;7.760;2023-09-18T12:32:38;1.88;;;1.10;;
30020;SDS011;16861;52.294;7.760;2023-09-18T12:35:06;2.40;;;1.05;;
30020;SDS011;16861;52.294;7.760;2023-09-18T12:37:34;2.33;;;1.17;;
30020;SDS011;16861;52.294;7.760;2023-09-18T12:40:01;1.85;;;1.20;;
30020;SDS011;16861;52.294;7.760;2023-09-18T12:42:34;2.88;;;1.38;;
30020;SDS011;16861;52.294;7.760;2023-09-18T12:45:00;1.70;;;1.10;;
30020;SDS011;16861;52.294;7.760;2023-09-18T12:47:27;2.00;;;1.10;;
30020;SDS011;16861;52.294;7.760;2023-09-18T12:50:01;2.10;;;1.27;;
30020;SDS011;16861;52.294;7.760;2023-09-18T12:52:29;1.70;;;1.08;;
30020;SDS011;16861;52.294;7.760;2023-09-18T12:54:57;2.15;;;1.00;;
30020;SDS011;16861;52.294;7.760;2023-09-18T12:57:25;4.47;;;1.20;;
30020;SDS011;16861;52.294;7.760;2023-09-18T12:59:52;1.83;;;1.00;;
30020;SDS011;16861;52.294;7.760;2023-09-18T13:02:20;2.53;;;1.58;;
30020;SDS011;16861;52.294;7.760;2023-09-18T13:04:51;2.03;;;1.23;;
30020;SDS011;16861;52.294;7.760;2023-09-18T13:07:19;2.28;;;1.10;;
30020;SDS011;16861;52.294;7.760;2023-09-18T13:12:52;2.15;;;1.15;;
30020;SDS011;16861;52.294;7.760;2023-09-18T13:15:31;3.55;;;1.33;;
30020;SDS011;16861;52.294;7.760;2023-09-18T13:18:08;3.88;;;1.33;;
30020;SDS011;16861;52.294;7.760;2023-09-18T13:20:36;4.07;;;1.35;;
30020;SDS011;16861;52.294;7.760;2023-09-18T13:23:03;3.35;;;1.30;;
30020;SDS011;16861;52.294;7.760;2023-09-18T13:28:00;3.78;;;1.40;;
30020;SDS011;16861;52.294;7.760;2023-09-18T13:30:30;2.20;;;1.20;;
30020;SDS011;16861;52.294;7.760;2023-09-18T13:33:04;5.15;;;1.58;;
30020;SDS011;16861;52.294;7.760;2023-09-18T13:35:33;4.53;;;1.90;;
30020;SDS011;16861;52.294;7.760;2023-09-18T13:38:00;2.47;;;1.38;;
30020;SDS011;16861;52.294;7.760;2023-09-18T13:40:30;2.63;;;1.48;;
30020;SDS011;16861;52.294;7.760;2023-09-18T13:42:56;3.22;;;1.60;;
30020;SDS011;16861;52.294;7.760;2023-09-18T13:45:23;7.13;;;1.67;;
30020;SDS011;16861;52.294;7.760;2023-09-18T13:47:51;5.43;;;1.60;;
30020;SDS011;16861;52.294;7.760;2023-09-18T13:50:17;6.85;;;1.55;;
30020;SDS011;16861;52.294;7.760;2023-09-18T13:52:44;3.08;;;1.50;;
30020;SDS011;16861;52.294;7.760;2023-09-18T13:55:11;3.28;;;1.38;;
30020;SDS011;16861;52.294;7.760;2023-09-18T13:57:38;3.78;;;1.30;;
30020;SDS011;16861;52.294;7.760;2023-09-18T14:00:06;2.10;;;1.48;;
30020;SDS011;16861;52.294;7.760;2023-09-18T14:02:37;2.72;;;1.65;;
30020;SDS011;16861;52.294;7.760;2023-09-18T14:05:04;2.92;;;1.63;;
30020;SDS011;16861;52.294;7.760;2023-09-18T14:07:32;3.30;;;1.83;;
30020;SDS011;16861;52.294;7.760;2023-09-18T14:09:58;5.68;;;1.40;;
30020;SDS011;16861;52.294;7.760;2023-09-18T14:12:29;2.83;;;1.58;;
30020;SDS011;16861;52.294;7.760;2023-09-18T14:14:56;3.08;;;1.30;;
30020;SDS011;16861;52.294;7.760;2023-09-18T14:17:23;2.50;;;1.35;;
30020;SDS011;16861;52.294;7.760;2023-09-18T14:19:50;1.85;;;1.25;;
30020;SDS011;16861;52.294;7.760;2023-09-18T14:22:18;3.67;;;1.60;;
30020;SDS011;16861;52.294;7.760;2023-09-18T14:24:45;2.70;;;1.27;;
30020;SDS011;16861;52.294;7.760;2023-09-18T14:27:12;1.65;;;1.42;;
30020;SDS011;16861;52.294;7.760;2023-09-18T14:29:38;2.88;;;1.27;;
30020;SDS011;16861;52.294;7.760;2023-09-18T14:32:05;1.95;;;1.33;;
30020;SDS011;16861;52.294;7.760;2023-09-18T14:34:34;2.05;;;1.40;;
30020;SDS011;16861;52.294;7.760;2023-09-18T14:37:02;4.75;;;1.45;;
30020;SDS011;16861;52.294;7.760;2023-09-18T14:39:32;4.20;;;1.90;;
30020;SDS011;16861;52.294;7.760;2023-09-18T14:41:59;2.80;;;1.50;;
30020;SDS011;16861;52.294;7.760;2023-09-18T14:44:26;1.98;;;1.45;;
30020;SDS011;16861;52.294;7.760;2023-09-18T14:46:56;3.30;;;1.50;;
30020;SDS011;16861;52.294;7.760;2023-09-18T14:49:24;2.80;;;1.45;;
30020;SDS011;16861;52.294;7.760;2023-09-18T14:51:53;3.47;;;1.70;;
30020;SDS011;16861;52.294;7.760;2023-09-18T14:54:20;3.70;;;1.33;;
30020;SDS011;16861;52.294;7.760;2023-09-18T14:56:47;2.58;;;1.58;;
30020;SDS011;16861;52.294;7.760;2023-09-18T14:59:14;4.13;;;1.67;;
30020;SDS011;16861;52.294;7.760;2023-09-18T15:01:49;4.45;;;1.38;;
30020;SDS011;16861;52.294;7.760;2023-09-18T15:04:16;4.30;;;1.60;;
30020;SDS011;16861;52.294;7.760;2023-09-18T15:06:42;2.97;;;1.90;;
30020;SDS011;16861;52.294;7.760;2023-09-18T15:09:09;2.40;;;1.48;;
30020;SDS011;16861;52.294;7.760;2023-09-18T15:11:36;3.63;;;1.50;;
30020;SDS011;16861;52.294;7.760;2023-09-18T15:14:02;2.60;;;1.67;;
30020;SDS011;16861;52.294;7.760;2023-09-18T15:16:47;2.15;;;1.45;;
30020;SDS011;16861;52.294;7.760;2023-09-18T15:19:15;3.20;;;1.50;;
30020;SDS011;16861;52.294;7.760;2023-09-18T15:21:46;3.60;;;1.60;;
30020;SDS011;16861;52.294;7.760;2023-09-18T15:24:12;3.40;;;1.95;;